Time;durP1;ratioP1;P1;durP2;ratioP2;P2;SDS_P1;SDS_P2;PMS_P1;PMS_P2;Temp;Humidity;BMP_temperature;BMP_pressure;BME280_temperature;BME280_humidity;BME280_pressure;Samples;Min_cycle;Max_cycle;Signal;HPM_P1;HPM_P2
2023/01/12 00:02:12;;;;;;;88.95;52.20;;;7.30;89.00;;;;;;5051443;28;20052;-69
2023/01/12 00:05:17;;;;;;;89.38;52.95;;;;;;;;;;5051602;28;20036;-68
2023/01/12 00:08:21;;;;;;;95.63;55.40;;;;;;;;;;5051346;28;20064;-68
2023/01/12 00:11:25;;;;;;;97.35;57.58;;;7.00;90.10;;;;;;5051031;28;20392;-68
2023/01/12 00:14:29;;;;;;;93.80;57.50;;;6.10;89.30;;;;;;5051436;28;20040;-68
2023/01/12 00:17:34;;;;;;;93.00;57.13;;;;;;;;;;5051118;28;20057;-68
2023/01/12 00:20:38;;;;;;;97.55;56.97;;;;;;;;;;5051278;28;20507;-69
2023/01/12 00:23:43;;;;;;;97.40;57.60;;;8.40;90.60;;;;;;5051021;28;20052;-69
2023/01/12 00:26:48;;;;;;;87.15;54.80;;;7.10;90.50;;;;;;5051093;28;20044;-69
2023/01/12 00:29:52;;;;;;;81.35;53.67;;;;;;;;;;5051280;28;20040;-70
2023/01/12 00:32:56;;;;;;;83.75;52.42;;;7.20;89.70;;;;;;5050196;28;20044;-68
2023/01/12 00:36:04;;;;;;;94.22;55.05;;;8.20;90.50;;;;;;5050856;28;20039;-68
2023/01/12 00:39:09;;;;;;;96.85;56.05;;;;;;;;;;5061332;28;20044;-67
2023/01/12 00:45:38;;;;;;;90.13;54.25;;;9.20;90.30;;;;;;5051029;28;20052;-68
2023/01/12 00:48:43;;;;;;;89.85;53.75;;;7.40;90.00;;;;;;5050661;28;20044;-67
2023/01/12 00:51:47;;;;;;;88.45;52.22;;;;;;;;;;5050846;28;20051;-69
2023/01/12 00:54:51;;;;;;;88.53;55.10;;;;;;;;;;5049752;28;20048;-68
2023/01/12 00:57:56;;;;;;;89.95;53.35;;;6.30;90.40;;;;;;5050865;28;20487;-68
2023/01/12 01:01:08;;;;;;;89.50;53.47;;;7.10;90.70;;;;;;5050444;28;20044;-69
2023/01/12 01:04:12;;;;;;;92.10;54.95;;;;;;;;;;5049829;28;20047;-68
2023/01/12 01:07:17;;;;;;;90.38;53.45;;;;;;;;;;5050502;28;20044;-68
2023/01/12 01:10:21;;;;;;;86.28;51.97;;;;;;;;;;5050667;28;20623;-69
2023/01/12 01:13:25;;;;;;;78.35;50.30;;;6.10;91.00;;;;;;5049756;28;20116;-69
2023/01/12 01:16:30;;;;;;;85.18;53.85;;;;;;;;;;5050479;28;20048;-69
2023/01/12 01:19:35;;;;;;;87.63;54.67;;;;;;;;;;5050304;28;20115;-69
2023/01/12 01:22:39;;;;;;;89.55;55.15;;;7.80;90.10;;;;;;5050225;28;20048;-68
2023/01/12 01:25:43;;;;;;;85.85;51.95;;;9.20;90.50;;;;;;5050249;28;20036;-69
2023/01/12 01:28:47;;;;;;;75.82;47.65;;;;;;;;;;5050313;28;20063;-69
2023/01/12 01:31:54;;;;;;;86.03;51.53;;;7.50;89.70;;;;;;5050686;28;20396;-68
2023/01/12 01:34:57;;;;;;;82.18;50.03;;;7.40;89.70;;;;;;5050457;28;20508;-69
2023/01/12 01:38:02;;;;;;;86.82;51.17;;;7.90;90.30;;;;;;5050695;28;20052;-68
2023/01/12 01:41:06;;;;;;;86.53;52.28;;;;;;;;;;5050156;28;20048;-68
2023/01/12 01:44:29;;;;;;;88.30;52.33;;;7.90;90.40;;;;;;5050406;28;20048;-68
2023/01/12 01:47:41;;;;;;;91.38;55.80;;;7.30;90.30;;;;;;5050441;28;20048;-69
2023/01/12 01:50:49;;;;;;;91.18;55.28;;;;;;;;;;5050141;28;20048;-68
2023/01/12 01:53:53;;;;;;;94.00;53.70;;;;;;;;;;5049947;28;20047;-68
2023/01/12 01:56:57;;;;;;;81.47;50.88;;;;;;;;;;5049736;28;20504;-68
2023/01/12 02:00:02;;;;;;;84.82;53.25;;;;;;;;;;5050029;28;20043;-68
2023/01/12 02:03:09;;;;;;;95.38;54.75;;;;;;;;;;5048693;28;20064;-68
2023/01/12 02:06:14;;;;;;;74.43;45.08;;;7.60;91.40;;;;;;5050882;28;20047;-68
2023/01/12 02:09:23;;;;;;;71.70;42.05;;;7.90;90.20;;;;;;5053308;28;20051;-68
2023/01/12 02:16:19;;;;;;;70.70;42.25;;;8.50;89.80;;;;;;5053713;28;20056;-68
2023/01/12 02:19:46;;;;;;;66.85;43.17;;;7.60;90.40;;;;;;5053247;28;20119;-68
2023/01/12 02:23:12;;;;;;;69.15;42.83;;;7.70;90.50;;;;;;5048534;28;20060;-68
2023/01/12 02:26:31;;;;;;;72.03;42.80;;;7.60;90.60;;;;;;5053135;28;20052;-68
2023/01/12 02:30:21;;;;;;;63.90;40.35;;;7.40;90.80;;;;;;5052340;28;20048;-68
2023/01/12 02:33:28;;;;;;;61.58;40.30;;;7.50;90.50;;;;;;5053105;28;20044;-68
2023/01/12 02:37:06;;;;;;;65.13;39.10;;;7.50;90.60;;;;;;5053047;28;20404;-68
2023/01/12 02:40:44;;;;;;;65.32;39.33;;;8.10;90.70;;;;;;5053031;28;20052;-68
2023/01/12 02:43:49;;;;;;;59.03;36.40;;;7.40;90.70;;;;;;5053135;28;20067;-68
2023/01/12 02:46:55;;;;;;;55.63;36.85;;;7.70;91.30;;;;;;5053225;28;20040;-69
2023/01/12 02:50:04;;;;;;;58.00;37.83;;;7.80;90.70;;;;;;5053158;28;20056;-69
2023/01/12 02:53:23;;;;;;;57.13;37.00;;;7.90;90.70;;;;;;5053374;28;20052;-69
2023/01/12 02:56:34;;;;;;;53.88;34.83;;;7.90;90.30;;;;;;5052911;28;20531;-68
2023/01/12 02:59:40;;;;;;;52.85;33.28;;;9.30;90.70;;;;;;5053385;28;20043;-69
2023/01/12 03:02:45;;;;;;;46.78;30.75;;;;;;;;;;5052633;28;20510;-70
2023/01/12 03:05:50;;;;;;;49.05;30.45;;;7.20;89.10;;;;;;5052898;28;20052;-69
2023/01/12 03:08:54;;;;;;;48.85;31.98;;;7.50;88.90;;;;;;5051829;28;20055;-68
2023/01/12 03:12:10;;;;;;;47.30;30.15;;;8.00;89.10;;;;;;5052973;28;20052;-69
2023/01/12 03:15:17;;;;;;;46.60;29.60;;;9.50;89.90;;;;;;5052999;28;20052;-68
2023/01/12 03:18:33;;;;;;;48.97;30.50;;;5.90;88.10;;;;;;5050373;28;20052;-69
2023/01/12 03:21:54;;;;;;;48.65;29.50;;;8.00;89.00;;;;;;5052552;28;20511;-69
2023/01/12 03:25:01;;;;;;;51.20;28.90;;;8.20;88.60;;;;;;5052124;28;20076;-68
2023/01/12 03:28:07;;;;;;;44.25;28.42;;;7.90;89.10;;;;;;5052128;28;20036;-69
2023/01/12 03:31:12;;;;;;;46.75;27.70;;;6.70;88.60;;;;;;5052148;28;20063;-68
2023/01/12 03:34:16;;;;;;;40.85;25.90;;;7.80;89.70;;;;;;5052031;28;20040;-69
2023/01/12 03:37:45;;;;;;;40.15;26.13;;;7.60;89.80;;;;;;5052154;28;20048;-68
2023/01/12 03:40:59;;;;;;;43.53;24.20;;;6.30;89.00;;;;;;5051587;28;20052;-69
2023/01/12 03:44:07;;;;;;;34.15;22.13;;;7.70;90.00;;;;;;5052083;28;20052;-69
2023/01/12 03:47:21;;;;;;;37.55;23.00;;;7.70;90.50;;;;;;5051107;28;20048;-69
2023/01/12 03:50:38;;;;;;;30.33;20.23;;;7.80;90.60;;;;;;5051935;28;20048;-68
2023/01/12 03:53:45;;;;;;;30.08;19.60;;;5.20;89.50;;;;;;5051474;28;20090;-68
2023/01/12 03:56:51;;;;;;;31.95;18.58;;;7.80;90.20;;;;;;5051792;28;20040;-68
2023/01/12 03:59:56;;;;;;;29.27;18.60;;;7.90;90.50;;;;;;5051574;28;20043;-69
2023/01/12 04:03:09;;;;;;;29.23;19.13;;;8.00;90.50;;;;;;5051321;28;20055;-69
2023/01/12 04:06:13;;;;;;;26.98;18.75;;;8.90;90.80;;;;;;5050523;28;20044;-69
2023/01/12 04:09:17;;;;;;;28.50;18.85;;;8.20;90.90;;;;;;5051226;28;20060;-68
2023/01/12 04:12:21;;;;;;;36.08;20.08;;;8.50;91.10;;;;;;5051103;28;20040;-69
2023/01/12 04:15:25;;;;;;;36.08;21.58;;;8.10;90.90;;;;;;5051503;28;20052;-69
2023/01/12 04:18:29;;;;;;;34.17;20.52;;;8.30;91.20;;;;;;5051328;28;20044;-68
2023/01/12 04:24:55;;;;;;;34.15;18.90;;;7.30;91.30;;;;;;5051286;28;20067;-69
2023/01/12 04:28:08;;;;;;;27.02;18.30;;;8.00;91.50;;;;;;5050414;28;20123;-68
2023/01/12 04:31:13;;;;;;;33.13;17.85;;;;;;;;;;5051089;28;20372;-68
2023/01/12 04:34:18;;;;;;;31.85;17.95;;;8.40;91.80;;;;;;5050055;28;20044;-69
2023/01/12 04:37:22;;;;;;;32.45;17.90;;;7.40;91.70;;;;;;5051123;28;20060;-69
2023/01/12 04:40:26;;;;;;;28.67;17.88;;;8.00;91.80;;;;;;5049786;28;20047;-69
2023/01/12 04:43:30;;;;;;;32.63;20.05;;;8.90;92.20;;;;;;5050434;28;20056;-70
2023/01/12 04:46:33;;;;;;;31.15;18.10;;;8.00;91.80;;;;;;5050700;28;20349;-68
2023/01/12 04:49:38;;;;;;;37.28;19.13;;;;;;;;;;5050464;28;20048;-68
2023/01/12 04:52:42;;;;;;;36.22;20.83;;;6.10;91.50;;;;;;5050414;28;20036;-68
2023/01/12 04:55:46;;;;;;;33.75;21.15;;;;;;;;;;5050616;28;20384;-68
2023/01/12 04:58:55;;;;;;;39.88;21.77;;;;;;;;;;5050619;28;20044;-69
2023/01/12 05:02:01;;;;;;;36.47;23.50;;;8.90;92.30;;;;;;5050739;28;20060;-69
2023/01/12 05:05:07;;;;;;;38.58;25.08;;;8.20;92.20;;;;;;5050566;28;20499;-69
2023/01/12 05:11:34;;;;;;;47.80;27.05;;;7.80;93.00;;;;;;5051115;28;20044;-68
2023/01/12 05:14:38;;;;;;;47.85;26.90;;;7.60;93.20;;;;;;5050261;28;20130;-68
2023/01/12 05:17:42;;;;;;;45.58;30.08;;;8.60;93.60;;;;;;5050242;28;20405;-68
2023/01/12 05:20:46;;;;;;;45.65;29.13;;;;;;;;;;5050741;28;20503;-68
2023/01/12 05:23:51;;;;;;;43.13;28.48;;;7.10;93.10;;;;;;5050861;28;20055;-69
2023/01/12 05:26:56;;;;;;;44.08;28.75;;;;;;;;;;5050338;28;20044;-68
2023/01/12 05:30:00;;;;;;;48.92;28.42;;;;;;;;;;5050304;28;20048;-69
2023/01/12 05:33:14;;;;;;;47.45;28.50;;;7.70;93.20;;;;;;5050214;28;20059;-69
2023/01/12 05:36:19;;;;;;;41.03;27.02;;;10.00;93.80;;;;;;5050262;28;20040;-68
2023/01/12 05:39:23;;;;;;;49.50;28.05;;;8.00;93.70;;;;;;5050173;28;20040;-69
2023/01/12 05:45:51;;;;;;;48.70;27.25;;;8.30;93.80;;;;;;5054252;28;20052;-68
2023/01/12 05:48:56;;;;;;;40.92;27.75;;;8.00;93.70;;;;;;5054727;28;20052;-67
2023/01/12 05:52:00;;;;;;;42.83;26.33;;;9.30;94.00;;;;;;5054294;28;20040;-69
2023/01/12 05:55:05;;;;;;;44.15;26.77;;;;;;;;;;5054449;28;20059;-68
2023/01/12 05:58:09;;;;;;;38.45;23.88;;;8.00;93.50;;;;;;5054522;28;20048;-68
2023/01/12 06:01:13;;;;;;;32.20;20.95;;;8.20;93.60;;;;;;5054123;28;20048;-68
2023/01/12 06:04:16;;;;;;;41.58;20.77;;;9.10;93.50;;;;;;5054150;28;20060;-69
2023/01/12 06:07:20;;;;;;;26.77;17.83;;;7.70;92.90;;;;;;5054307;28;20037;-68
2023/01/12 06:10:25;;;;;;;34.50;19.25;;;8.30;92.80;;;;;;5054142;28;20052;-68
2023/01/12 06:16:51;;;;;;;37.63;20.70;;;8.60;92.90;;;;;;5054149;28;20051;-68
2023/01/12 06:19:55;;;;;;;39.38;20.63;;;7.10;92.80;;;;;;5054158;28;20036;-69
2023/01/12 06:23:00;;;;;;;36.10;20.95;;;8.30;93.30;;;;;;5052932;28;20052;-61
2023/01/12 06:26:07;;;;;;;58.85;27.67;;;8.20;93.80;;;;;;5052681;28;20048;-61
2023/01/12 06:29:12;;;;;;;61.58;26.15;;;10.80;94.60;;;;;;5053690;28;20108;-60
2023/01/12 06:32:16;;;;;;;51.70;25.27;;;8.20;93.70;;;;;;5053428;28;20048;-61
2023/01/12 06:35:20;;;;;;;49.83;25.83;;;8.70;93.40;;;;;;5053705;28;20040;-60
2023/01/12 06:38:26;;;;;;;49.90;28.15;;;8.60;93.30;;;;;;5053080;28;20404;-61
2023/01/12 06:44:56;;;;;;;43.78;23.05;;;8.20;92.90;;;;;;5053569;28;20052;-59
2023/01/12 06:48:01;;;;;;;43.53;24.52;;;8.20;92.80;;;;;;5053082;28;20052;-61
2023/01/12 06:51:05;;;;;;;40.88;23.40;;;8.10;92.70;;;;;;5053010;28;20424;-60
2023/01/12 06:54:09;;;;;;;47.80;24.75;;;8.20;92.60;;;;;;5052883;28;20191;-59
2023/01/12 06:57:14;;;;;;;39.05;23.48;;;8.20;93.00;;;;;;5053210;28;20043;-61
2023/01/12 07:00:18;;;;;;;49.00;23.85;;;;;;;;;;5052760;28;20048;-59
2023/01/12 07:03:22;;;;;;;41.95;27.73;;;8.40;92.30;;;;;;5052803;28;20051;-60
2023/01/12 07:06:25;;;;;;;47.08;26.55;;;8.40;92.60;;;;;;5053289;28;20056;-61
2023/01/12 07:09:30;;;;;;;52.33;28.05;;;;;;;;;;5052483;28;20396;-60
2023/01/12 07:12:34;;;;;;;54.90;30.35;;;8.90;92.90;;;;;;5052705;28;20052;-59
2023/01/12 07:15:38;;;;;;;56.88;28.83;;;;;;;;;;5052660;28;20044;-60
2023/01/12 07:18:42;;;;;;;58.75;28.35;;;8.50;93.20;;;;;;5052564;28;20503;-61
2023/01/12 07:21:53;;;;;;;49.85;29.25;;;6.70;92.70;;;;;;5052622;28;20052;-59
2023/01/12 07:24:56;;;;;;;53.58;29.42;;;10.70;93.70;;;;;;5051829;28;20072;-61
2023/01/12 07:28:01;;;;;;;49.85;29.25;;;8.70;93.00;;;;;;5051781;28;20043;-61
2023/01/12 07:31:05;;;;;;;51.88;28.23;;;8.60;92.90;;;;;;5051567;28;20040;-62
2023/01/12 07:34:10;;;;;;;65.25;32.53;;;8.60;93.10;;;;;;5052572;28;20068;-60
2023/01/12 07:37:14;;;;;;;61.42;37.78;;;9.40;93.30;;;;;;5052279;28;20040;-60
2023/01/12 07:40:18;;;;;;;88.47;51.45;;;8.80;93.00;;;;;;5052175;28;20056;-62
2023/01/12 07:43:24;;;;;;;69.82;40.63;;;8.70;92.90;;;;;;5051408;28;20056;-62
2023/01/12 07:46:30;;;;;;;76.05;39.15;;;8.70;92.50;;;;;;5052338;28;20044;-62
2023/01/12 07:49:34;;;;;;;48.83;26.23;;;8.70;91.60;;;;;;5052137;28;20044;-62
2023/01/12 07:52:40;;;;;;;35.88;20.35;;;7.80;90.70;;;;;;5052152;28;20061;-62
2023/01/12 07:55:44;;;;;;;26.02;14.48;;;9.70;90.60;;;;;;5051944;28;20047;-62
2023/01/12 07:58:48;;;;;;;19.25;6.47;;;9.80;88.40;;;;;;5051880;28;20405;-61
2023/01/12 08:01:55;;;;;;;9.18;2.20;;;9.90;86.10;;;;;;5051591;28;20151;-60
2023/01/12 08:05:00;;;;;;;6.47;2.13;;;;;;;;;;5051713;28;20041;-60
2023/01/12 08:08:04;;;;;;;7.25;2.08;;;;;;;;;;5051563;28;20041;-61
2023/01/12 08:11:10;;;;;;;5.53;2.33;;;11.40;84.10;;;;;;5051791;28;20041;-61
2023/01/12 08:14:26;;;;;;;4.85;1.67;;;11.10;82.90;;;;;;5051534;28;20495;-62
2023/01/12 08:17:36;;;;;;;3.33;2.15;;;12.10;83.80;;;;;;5051760;28;20388;-60
2023/01/12 08:20:40;;;;;;;7.00;1.70;;;13.10;84.00;;;;;;5050481;28;20040;-62
2023/01/12 08:23:48;;;;;;;5.90;2.67;;;11.20;82.90;;;;;;5051391;28;20484;-59
2023/01/12 08:26:55;;;;;;;7.68;2.50;;;;;;;;;;5051179;28;20503;-61
2023/01/12 08:30:03;;;;;;;4.72;2.15;;;;;;;;;;5051667;28;20468;-60
2023/01/12 08:33:07;;;;;;;5.00;1.80;;;12.30;82.60;;;;;;5051476;28;20036;-60
2023/01/12 08:36:14;;;;;;;4.20;1.60;;;11.20;82.50;;;;;;5051450;28;20044;-61
2023/01/12 08:39:19;;;;;;;10.88;2.53;;;;;;;;;;5051256;28;20036;-61
2023/01/12 08:42:26;;;;;;;7.75;3.75;;;;;;;;;;5051200;28;20052;-61
2023/01/12 08:45:30;;;;;;;9.30;2.88;;;;;;;;;;5051387;28;20060;-61
2023/01/12 08:48:35;;;;;;;9.40;3.28;;;;;;;;;;5050949;28;20480;-61
2023/01/12 08:51:39;;;;;;;4.75;2.05;;;11.80;80.80;;;;;;5049943;28;20033;-60
2023/01/12 08:54:44;;;;;;;5.60;2.50;;;11.80;82.30;;;;;;5049942;28;20503;-61
2023/01/12 08:57:48;;;;;;;13.32;5.15;;;;;;;;;;5050948;28;20048;-62
2023/01/12 09:00:52;;;;;;;16.77;6.50;;;;;;;;;;5050774;28;20052;-62
2023/01/12 09:03:57;;;;;;;10.18;6.13;;;12.00;82.40;;;;;;5050774;28;20062;-62
2023/01/12 09:07:02;;;;;;;12.15;7.03;;;;;;;;;;5050740;28;20388;-60
2023/01/12 09:10:06;;;;;;;9.32;5.80;;;12.30;81.30;;;;;;5050920;28;20370;-60
2023/01/12 09:13:14;;;;;;;14.13;6.93;;;;;;;;;;5050881;28;20052;-62
2023/01/12 09:16:21;;;;;;;11.60;7.03;;;13.20;78.40;;;;;;5052987;28;20044;-61
2023/01/12 09:19:25;;;;;;;7.60;4.97;;;13.50;78.20;;;;;;5055013;28;20048;-62
2023/01/12 09:22:30;;;;;;;10.18;5.55;;;;;;;;;;5054250;28;20048;-60
2023/01/12 09:25:34;;;;;;;12.32;6.93;;;;;;;;;;5054824;28;20053;-61
2023/01/12 09:28:38;;;;;;;12.20;5.80;;;8.80;76.20;;;;;;5054924;28;20045;-62
2023/01/12 09:31:44;;;;;;;9.60;4.75;;;12.70;78.70;;;;;;5053524;28;20048;-61
2023/01/12 09:34:49;;;;;;;8.25;5.25;;;;;;;;;;5054319;28;20143;-62
2023/01/12 09:37:53;;;;;;;9.07;5.60;;;13.80;81.40;;;;;;5054487;28;20041;-62
2023/01/12 09:41:07;;;;;;;10.90;5.85;;;12.70;81.30;;;;;;5054344;28;20036;-62
2023/01/12 09:48:02;;;;;;;10.40;5.40;;;13.10;82.10;;;;;;5054088;28;20047;-61
2023/01/12 09:51:23;;;;;;;8.10;5.43;;;13.40;81.50;;;;;;5053666;28;20056;-59
2023/01/12 09:54:27;;;;;;;14.02;6.47;;;13.50;82.00;;;;;;5053538;28;20040;-61
2023/01/12 09:57:47;;;;;;;6.30;3.70;;;13.80;81.30;;;;;;5054443;28;20503;-61
2023/01/12 10:00:56;;;;;;;8.43;4.18;;;14.20;76.20;;;;;;5053235;28;20052;-62
2023/01/12 10:04:01;;;;;;;7.53;3.95;;;14.40;74.80;;;;;;5054129;28;20048;-61
2023/01/12 10:07:12;;;;;;;11.32;3.70;;;14.70;75.00;;;;;;5053816;28;20495;-62
2023/01/12 10:10:16;;;;;;;7.32;3.25;;;14.90;75.20;;;;;;5053834;28;20048;-61
2023/01/12 10:13:21;;;;;;;4.72;2.63;;;14.90;73.10;;;;;;5054080;28;20043;-62
2023/01/12 10:17:03;;;;;;;4.10;2.42;;;14.70;70.90;;;;;;5053866;28;20048;-61
2023/01/12 10:20:28;;;;;;;6.03;2.88;;;14.70;72.60;;;;;;5053933;28;20044;-62
2023/01/12 10:23:33;;;;;;;7.93;2.60;;;14.70;73.20;;;;;;5053538;28;20519;-64
2023/01/12 10:26:42;;;;;;;4.20;1.60;;;14.80;71.50;;;;;;5053448;28;20035;-61
2023/01/12 10:29:47;;;;;;;5.85;2.22;;;14.90;68.60;;;;;;5053880;28;20500;-60
2023/01/12 10:32:51;;;;;;;3.28;1.92;;;14.90;69.40;;;;;;5053664;28;20056;-60
2023/01/12 10:36:09;;;;;;;15.20;6.75;;;15.00;69.80;;;;;;5053502;28;20044;-62
2023/01/12 10:39:32;;;;;;;13.98;8.30;;;15.10;69.10;;;;;;5052790;28;20044;-63
2023/01/12 10:46:07;;;;;;;3.53;2.40;;;15.20;68.70;;;;;;5053142;28;20044;-63
2023/01/12 10:49:20;;;;;;;3.08;1.90;;;11.70;67.80;;;;;;5053325;28;20600;-59
2023/01/12 10:52:39;;;;;;;6.75;2.78;;;15.30;71.10;;;;;;5053003;28;20048;-60
2023/01/12 10:55:46;;;;;;;4.38;1.92;;;15.20;71.50;;;;;;5053148;28;20052;-61
2023/01/12 10:59:18;;;;;;;6.25;2.05;;;15.10;71.50;;;;;;5052964;28;20044;-62
2023/01/12 11:02:25;;;;;;;4.68;2.03;;;15.30;72.00;;;;;;5054902;28;20052;-61
2023/01/12 11:05:37;;;;;;;5.80;2.22;;;14.50;71.30;;;;;;5053211;28;20052;-62
2023/01/12 11:08:41;;;;;;;4.28;2.25;;;15.40;72.30;;;;;;5052545;28;20396;-61
2023/01/12 11:11:45;;;;;;;9.65;3.30;;;15.40;72.30;;;;;;5052686;28;20044;-61
2023/01/12 11:15:17;;;;;;;4.47;1.88;;;14.90;72.20;;;;;;5052526;28;20519;-60
2023/01/12 11:18:23;;;;;;;6.32;2.30;;;16.60;73.50;;;;;;5052674;28;20507;-60
2023/01/12 11:21:34;;;;;;;3.60;2.13;;;14.20;72.30;;;;;;5052778;28;20040;-60
2023/01/12 11:24:46;;;;;;;3.90;2.15;;;15.40;72.50;;;;;;5051859;28;20063;-61
2023/01/12 11:28:29;;;;;;;4.85;2.30;;;15.30;71.90;;;;;;5052465;28;20063;-61
2023/01/12 11:31:41;;;;;;;4.03;2.25;;;15.30;72.50;;;;;;5052556;28;20040;-61
2023/01/12 11:35:16;;;;;;;9.13;2.42;;;15.00;73.00;;;;;;5052442;28;20040;-61
2023/01/12 11:38:42;;;;;;;4.95;2.22;;;15.40;73.20;;;;;;5051874;28;20044;-61
2023/01/12 11:45:16;;;;;;;4.77;2.10;;;15.30;72.90;;;;;;5051253;28;20049;-61
2023/01/12 11:48:42;;;;;;;6.38;2.13;;;15.30;72.90;;;;;;5052200;28;20052;-60
2023/01/12 11:51:50;;;;;;;5.32;2.45;;;15.30;72.70;;;;;;5052358;28;20052;-61
2023/01/12 11:54:54;;;;;;;11.80;5.43;;;15.30;73.20;;;;;;5052274;28;20060;-63
2023/01/12 11:58:10;;;;;;;10.43;3.53;;;15.30;73.20;;;;;;5052160;28;20515;-60
2023/01/12 12:01:41;;;;;;;3.90;1.98;;;15.20;73.30;;;;;;5052059;28;20052;-60
2023/01/12 12:04:53;;;;;;;4.55;3.65;;;15.30;72.90;;;;;;5051710;28;20051;-61
2023/01/12 12:08:16;;;;;;;4.25;1.75;;;17.50;74.60;;;;;;5051239;28;20591;-60
2023/01/12 12:11:29;;;;;;;3.47;1.92;;;15.40;73.70;;;;;;5049460;28;20052;-61
2023/01/12 12:14:53;;;;;;;7.53;2.00;;;15.30;73.20;;;;;;5049660;28;20040;-61
2023/01/12 12:17:57;;;;;;;8.35;2.75;;;15.30;74.00;;;;;;5049920;28;20071;-62
2023/01/12 12:21:26;;;;;;;6.20;2.42;;;15.10;74.40;;;;;;5049532;28;20052;-60
2023/01/12 12:24:56;;;;;;;4.22;2.15;;;15.20;73.80;;;;;;5049613;28;20051;-61
2023/01/12 12:28:24;;;;;;;2.55;1.92;;;15.10;74.30;;;;;;5052215;28;20523;-59
2023/01/12 12:31:55;;;;;;;4.20;2.20;;;15.10;74.50;;;;;;5051111;28;20055;-60
2023/01/12 12:35:42;;;;;;;5.90;2.38;;;15.00;75.40;;;;;;5051423;28;20044;-60
2023/01/12 12:39:13;;;;;;;7.10;3.00;;;16.80;76.60;;;;;;5041992;28;20044;-61
2023/01/12 12:46:04;;;;;;;3.03;2.00;;;15.00;75.60;;;;;;5050945;28;20052;-61
2023/01/12 12:49:14;;;;;;;4.15;2.05;;;13.10;74.80;;;;;;5051141;28;20499;-62
2023/01/12 12:52:19;;;;;;;4.47;1.92;;;14.80;76.00;;;;;;5051204;28;20044;-60
2023/01/12 12:55:23;;;;;;;6.50;2.47;;;15.70;76.50;;;;;;5051012;28;20048;-62
2023/01/12 12:58:49;;;;;;;3.03;2.30;;;14.60;76.70;;;;;;5051138;28;20040;-61
2023/01/12 13:01:54;;;;;;;7.55;3.42;;;14.70;76.80;;;;;;5051217;28;20040;-60
2023/01/12 13:05:01;;;;;;;5.85;3.40;;;14.30;76.90;;;;;;5050095;28;20060;-61
2023/01/12 13:08:22;;;;;;;2.65;1.83;;;14.90;76.80;;;;;;5051090;28;20112;-61
2023/01/12 13:11:52;;;;;;;3.90;2.88;;;13.70;76.10;;;;;;5049942;28;20048;-60
2023/01/12 13:15:19;;;;;;;5.57;3.33;;;14.90;77.00;;;;;;5050898;28;20052;-61
2023/01/12 13:18:48;;;;;;;4.57;2.30;;;14.80;76.90;;;;;;5050777;28;20512;-60
2023/01/12 13:21:58;;;;;;;4.03;2.38;;;14.90;77.00;;;;;;5051092;28;20484;-61
2023/01/12 13:25:22;;;;;;;8.15;3.03;;;14.90;76.70;;;;;;5050065;28;20120;-62
2023/01/12 13:28:27;;;;;;;4.95;2.78;;;14.90;76.00;;;;;;5050628;28;20048;-62
2023/01/12 13:31:31;;;;;;;8.63;3.28;;;14.90;75.80;;;;;;5050555;28;20041;-62
2023/01/12 13:34:35;;;;;;;6.22;4.15;;;14.90;76.50;;;;;;5050698;28;20048;-61
2023/01/12 13:37:52;;;;;;;6.25;3.30;;;15.00;77.10;;;;;;5050106;28;20058;-60
2023/01/12 13:44:44;;;;;;;8.18;2.70;;;14.80;77.40;;;;;;5050462;28;20414;-61
2023/01/12 13:47:51;;;;;;;6.97;5.10;;;14.80;77.80;;;;;;5050736;28;20060;-58
2023/01/12 13:51:00;;;;;;;5.13;2.33;;;14.80;77.90;;;;;;5050723;28;20048;-65
2023/01/12 13:54:09;;;;;;;6.53;2.28;;;12.30;76.60;;;;;;5050730;28;20143;-61
2023/01/12 13:57:19;;;;;;;5.53;2.55;;;15.90;79.20;;;;;;5047720;28;20051;-59
2023/01/12 14:00:23;;;;;;;3.00;1.80;;;15.40;78.70;;;;;;5048668;28;20698;-60
2023/01/12 14:03:49;;;;;;;6.13;2.92;;;14.60;79.30;;;;;;5052255;28;20044;-61
2023/01/12 14:07:05;;;;;;;9.00;4.47;;;14.60;79.20;;;;;;5051495;28;20048;-59
2023/01/12 14:10:26;;;;;;;9.30;4.32;;;14.60;79.80;;;;;;5051539;28;20044;-61
2023/01/12 14:17:47;;;;;;;7.07;2.80;;;14.70;80.10;;;;;;5054143;28;20059;-61
2023/01/12 14:17:48;;;;;;;4.65;2.92;;;14.50;79.40;;;;;;5053690;28;20036;-61
2023/01/12 14:20:54;;;;;;;7.55;3.97;;;14.40;79.60;;;;;;5053753;28;20052;-62
2023/01/12 14:24:16;;;;;;;9.60;4.60;;;14.50;79.80;;;;;;5054041;28;20499;-61
2023/01/12 14:27:22;;;;;;;;;;;14.40;79.80;;;;;;5054425;28;20048;-62
2023/01/12 14:30:26;;;;;;;4.93;2.97;;;14.50;80.10;;;;;;5053701;28;19916;-61
2023/01/12 14:33:33;;;;;;;3.88;2.85;;;14.20;79.80;;;;;;5053742;28;20499;-60
2023/01/12 14:36:43;;;;;;;4.88;3.03;;;14.30;80.30;;;;;;5053687;28;20047;-61
2023/01/12 14:39:47;;;;;;;8.13;3.45;;;14.40;80.20;;;;;;5053703;28;20048;-62
2023/01/12 14:46:32;;;;;;;5.60;3.03;;;13.40;80.40;;;;;;5053384;28;20048;-61
2023/01/12 14:49:40;;;;;;;8.52;3.05;;;;;;;;;;5053197;28;20044;-62
2023/01/12 14:52:45;;;;;;;6.20;2.90;;;14.20;80.70;;;;;;5053234;28;20037;-63
2023/01/12 14:55:50;;;;;;;8.38;3.90;;;11.30;79.90;;;;;;5053134;28;20048;-64
2023/01/12 14:59:05;;;;;;;9.27;4.25;;;14.10;82.00;;;;;;5053399;28;20050;-62
2023/01/12 15:02:12;;;;;;;11.40;3.47;;;;;;;;;;5053319;28;20056;-62
2023/01/12 15:05:27;;;;;;;5.32;3.60;;;13.40;81.60;;;;;;5053035;28;20049;-62
2023/01/12 15:08:31;;;;;;;19.98;7.25;;;;;;;;;;5052045;28;20051;-62
2023/01/12 15:11:36;;;;;;;11.00;4.75;;;14.00;82.40;;;;;;5052807;28;20044;-62
2023/01/12 15:14:41;;;;;;;12.43;3.30;;;;;;;;;;5051117;28;20440;-61
2023/01/12 15:27:56;;;;;;;5.07;2.90;;;;;;;;;;5051938;28;20488;-61
2023/01/12 15:31:00;;;;;;;7.20;3.08;;;;;;;;;;5051723;28;20041;-62
2023/01/12 15:34:05;;;;;;;5.13;2.70;;;13.60;80.60;;;;;;5052637;28;20037;-60
2023/01/12 15:37:14;;;;;;;2.10;1.45;;;14.40;80.70;;;;;;5051750;28;20060;-61
2023/01/12 15:40:19;;;;;;;5.38;1.80;;;14.00;80.80;;;;;;5051065;28;20040;-62
2023/01/12 15:43:23;;;;;;;5.25;3.30;;;;;;;;;;5052009;28;20040;-62
2023/01/12 15:46:27;;;;;;;9.32;3.50;;;;;;;;;;5052263;28;20373;-61
2023/01/12 15:49:33;;;;;;;7.43;2.97;;;;;;;;;;5052157;28;20041;-61
2023/01/12 15:52:37;;;;;;;12.75;4.18;;;13.40;79.60;;;;;;5052164;28;20033;-62
2023/01/12 15:55:41;;;;;;;5.00;3.47;;;13.60;79.30;;;;;;5051804;28;20040;-61
2023/01/12 15:58:46;;;;;;;7.07;3.85;;;;;;;;;;5051931;28;20048;-61
2023/01/12 16:01:50;;;;;;;6.47;3.33;;;13.30;79.60;;;;;;5050929;28;20417;-61
2023/01/12 16:04:54;;;;;;;11.70;4.65;;;;;;;;;;5051667;28;20052;-61
2023/01/12 16:08:00;;;;;;;14.80;6.70;;;;;;;;;;5051549;28;20056;-61
2023/01/12 16:11:16;;;;;;;14.93;6.22;;;13.20;80.10;;;;;;5051642;28;20049;-61
2023/01/12 16:14:20;;;;;;;9.57;5.10;;;14.40;81.20;;;;;;5051662;28;20056;-62
2023/01/12 16:17:25;;;;;;;6.82;4.05;;;15.80;81.40;;;;;;5051425;28;20044;-61
2023/01/12 16:20:29;;;;;;;4.72;2.35;;;15.80;81.50;;;;;;5051669;28;20044;-63
2023/01/12 16:23:34;;;;;;;4.20;2.13;;;;;;;;;;5051834;28;20044;-62
2023/01/12 16:26:38;;;;;;;2.97;1.83;;;;;;;;;;5051347;28;20049;-63
2023/01/12 16:29:42;;;;;;;6.78;3.03;;;;;;;;;;5050888;28;20037;-61
2023/01/12 16:32:47;;;;;;;6.03;2.72;;;;;;;;;;5051167;28;20472;-62
2023/01/12 16:35:54;;;;;;;6.45;3.58;;;13.10;80.60;;;;;;5051261;28;20037;-62
2023/01/12 16:38:59;;;;;;;8.18;3.92;;;;;;;;;;5051248;28;20463;-61
2023/01/12 16:42:03;;;;;;;15.77;10.40;;;;;;;;;;5051295;28;20036;-63
2023/01/12 16:45:08;;;;;;;9.68;4.95;;;14.10;80.70;;;;;;5051147;28;20539;-62
2023/01/12 16:48:13;;;;;;;4.47;2.80;;;;;;;;;;5051007;28;20040;-62
2023/01/12 16:51:18;;;;;;;4.63;3.10;;;14.20;80.90;;;;;;5051268;28;20049;-59
2023/01/12 16:54:22;;;;;;;5.43;3.58;;;11.90;79.60;;;;;;5050859;28;20040;-62
2023/01/12 16:57:26;;;;;;;6.55;3.70;;;12.00;80.00;;;;;;5051203;28;20052;-62
2023/01/12 17:00:34;;;;;;;8.38;4.40;;;;;;;;;;5051058;28;20048;-62
2023/01/12 17:03:40;;;;;;;11.27;3.65;;;;;;;;;;5050063;28;20037;-63
2023/01/12 17:06:44;;;;;;;6.68;3.97;;;;;;;;;;5050530;28;20519;-62
2023/01/12 17:09:48;;;;;;;7.85;3.90;;;;;;;;;;5050534;28;20045;-62
2023/01/12 17:12:53;;;;;;;12.55;4.28;;;;;;;;;;5049780;28;20029;-61
2023/01/12 17:15:57;;;;;;;7.57;4.57;;;;;;;;;;5050789;28;20037;-61
2023/01/12 17:19:01;;;;;;;23.05;13.88;;;16.30;83.00;;;;;;5050854;28;20041;-63
2023/01/12 17:22:06;;;;;;;15.73;7.47;;;12.80;81.20;;;;;;5050701;28;20044;-62
2023/01/12 17:25:10;;;;;;;11.45;7.45;;;;;;;;;;5050610;28;20060;-62
2023/01/12 17:28:15;;;;;;;17.65;9.52;;;;;;;;;;5049532;28;20033;-62
2023/01/12 17:31:19;;;;;;;23.75;13.02;;;;;;;;;;5050714;28;20033;-63
2023/01/12 17:34:27;;;;;;;21.35;13.93;;;;;;;;;;5050955;28;20044;-64
2023/01/12 17:37:31;;;;;;;24.27;13.95;;;;;;;;;;5053513;28;20048;-62
2023/01/12 17:40:37;;;;;;;30.80;17.13;;;12.50;82.50;;;;;;5054158;28;20044;-61
2023/01/12 17:43:41;;;;;;;29.17;14.10;;;;;;;;;;5053406;28;20047;-62